createdAt,value
2023-02-21T00:01:59.148Z,7.30
2023-02-21T00:07:19.407Z,7.40
2023-02-21T00:12:39.980Z,7.40
2023-02-21T00:18:00.497Z,7.50
2023-02-21T00:23:21.114Z,7.40
2023-02-21T00:28:41.672Z,7.50
2023-02-21T00:34:02.239Z,7.40
2023-02-21T00:39:22.908Z,7.20
2023-02-21T00:44:43.536Z,7.30
2023-02-21T00:50:03.896Z,7.20
2023-02-21T00:55:24.542Z,7.20
2023-02-21T01:00:44.952Z,7.20
2023-02-21T01:06:05.669Z,7.20
2023-02-21T01:11:25.761Z,7.10
2023-02-21T01:16:50.883Z,7.10
2023-02-21T01:22:11.529Z,7.00
2023-02-21T01:27:32.113Z,7.00
2023-02-21T01:32:52.664Z,7.00
2023-02-21T01:38:13.247Z,7.00
2023-02-21T01:43:41.980Z,7.20
2023-02-21T01:49:02.647Z,7.20
2023-02-21T01:54:24.004Z,7.10
2023-02-21T01:59:45.143Z,7.10
2023-02-21T02:05:08.013Z,7.20
2023-02-21T02:10:30.134Z,7.10
2023-02-21T02:16:03.551Z,7.00
2023-02-21T02:21:49.736Z,7.10
2023-02-21T02:27:03.980Z,7.10
2023-02-21T02:32:43.393Z,7.00
2023-02-21T02:38:03.555Z,7.00
2023-02-21T02:43:27.597Z,7.10
2023-02-21T02:48:33.174Z,7.00
2023-02-21T02:53:36.108Z,7.00
2023-02-21T02:58:52.426Z,7.00
2023-02-21T03:04:08.232Z,6.90
2023-02-21T03:09:19.538Z,6.90
2023-02-21T03:14:29.238Z,6.90
2023-02-21T03:19:38.221Z,6.80
2023-02-21T03:24:42.676Z,6.90
2023-02-21T03:29:45.322Z,6.90
2023-02-21T03:34:47.746Z,6.80
2023-02-21T03:39:49.498Z,6.90
2023-02-21T03:44:51.384Z,6.90
2023-02-21T03:49:53.342Z,6.90
2023-02-21T03:54:55.084Z,6.80
2023-02-21T03:59:57.120Z,7.00
2023-02-21T04:04:59.131Z,6.90
2023-02-21T04:10:00.901Z,6.90
2023-02-21T04:15:02.966Z,6.90
2023-02-21T04:20:05.126Z,6.90
2023-02-21T04:25:08.113Z,6.90
2023-02-21T04:30:10.752Z,6.80
2023-02-21T04:35:12.989Z,6.70
2023-02-21T04:40:14.844Z,6.80
2023-02-21T04:45:16.990Z,6.70
2023-02-21T04:50:19.045Z,6.70
2023-02-21T04:55:20.834Z,6.80
2023-02-21T05:00:22.948Z,6.60
2023-02-21T05:05:24.820Z,6.70
2023-02-21T05:10:36.659Z,6.70
2023-02-21T05:15:45.468Z,6.70
2023-02-21T05:20:47.251Z,6.70
2023-02-21T05:25:49.031Z,6.70
2023-02-21T05:30:51.127Z,6.70
2023-02-21T05:35:53.553Z,6.50
2023-02-21T05:40:55.586Z,6.70
2023-02-21T05:45:57.436Z,6.70
2023-02-21T05:50:59.216Z,6.60
2023-02-21T05:56:00.955Z,6.60
2023-02-21T06:01:03.043Z,6.60
2023-02-21T06:06:05.035Z,6.70
2023-02-21T06:11:06.840Z,6.60
2023-02-21T06:16:08.710Z,6.50
2023-02-21T06:21:10.649Z,6.50
2023-02-21T06:26:13.311Z,6.50
2023-02-21T06:31:16.507Z,6.50
2023-02-21T06:36:21.626Z,6.50
2023-02-21T06:41:26.258Z,6.60
2023-02-21T06:46:30.434Z,6.70
2023-02-21T06:51:36.869Z,6.60
2023-02-21T06:56:38.858Z,6.70
2023-02-21T07:01:40.702Z,6.50
2023-02-21T07:06:42.479Z,6.50
2023-02-21T07:11:46.834Z,6.40
2023-02-21T07:16:48.711Z,6.40
2023-02-21T07:21:50.631Z,6.50
2023-02-21T07:26:52.539Z,6.60
2023-02-21T07:31:54.500Z,6.60
2023-02-21T07:36:56.361Z,6.80
2023-02-21T07:41:58.172Z,6.70
2023-02-21T07:47:00.128Z,6.40
2023-02-21T07:52:01.892Z,6.60
2023-02-21T07:57:03.831Z,6.60
2023-02-21T08:02:05.784Z,6.60
2023-02-21T08:07:08.500Z,6.50
2023-02-21T08:12:10.419Z,6.70
2023-02-21T08:17:14.141Z,6.60
2023-02-21T08:22:15.888Z,6.80
2023-02-21T08:27:18.596Z,6.50
2023-02-21T08:32:20.649Z,6.50
2023-02-21T08:37:22.461Z,6.50
2023-02-21T08:42:24.326Z,6.60
2023-02-21T08:47:26.085Z,6.50
2023-02-21T08:52:27.853Z,6.50
2023-02-21T08:57:29.611Z,6.70
2023-02-21T09:02:32.801Z,6.60
2023-02-21T09:07:34.855Z,6.60
2023-02-21T09:12:38.528Z,6.70
2023-02-21T09:17:40.518Z,6.80
2023-02-21T09:22:47.222Z,6.80
2023-02-21T09:27:49.114Z,6.90
2023-02-21T09:32:51.435Z,7.00
2023-02-21T09:37:53.310Z,7.10
2023-02-21T09:42:58.724Z,7.10
2023-02-21T09:48:06.871Z,7.10
2023-02-21T09:53:09.450Z,7.10
2023-02-21T09:58:17.787Z,7.20
2023-02-21T10:03:47.106Z,7.20
2023-02-21T10:09:29.035Z,7.20
2023-02-21T10:14:44.876Z,7.20
2023-02-21T10:19:52.152Z,6.90
2023-02-21T10:24:55.056Z,7.00
2023-02-21T10:30:11.049Z,7.00
2023-02-21T10:35:12.858Z,7.10
2023-02-21T10:40:52.319Z,7.10
2023-02-21T10:46:06.152Z,7.20
2023-02-21T10:51:12.385Z,7.20
2023-02-21T10:56:23.114Z,7.30
2023-02-21T11:01:30.193Z,7.30
2023-02-21T11:06:36.716Z,7.30
2023-02-21T11:11:42.602Z,7.20
2023-02-21T11:16:44.632Z,7.20
2023-02-21T11:21:56.408Z,7.20
2023-02-21T11:26:58.732Z,7.30
2023-02-21T11:32:19.398Z,7.30
2023-02-21T11:37:21.309Z,7.30
2023-02-21T11:42:29.402Z,7.40
2023-02-21T11:47:43.461Z,7.40
2023-02-21T11:52:57.987Z,7.50
2023-02-21T11:58:23.212Z,7.20
2023-02-21T12:03:45.197Z,7.40
2023-02-21T12:08:56.784Z,7.60
2023-02-21T12:14:26.516Z,7.70
2023-02-21T12:19:55.918Z,7.70
2023-02-21T12:25:03.761Z,7.40
2023-02-21T12:30:17.634Z,7.40
2023-02-21T12:35:34.329Z,7.70
2023-02-21T12:41:29.905Z,7.80
2023-02-21T12:46:36.715Z,7.70
2023-02-21T12:51:45.725Z,7.80
2023-02-21T12:56:57.319Z,7.60
2023-02-21T13:02:12.461Z,7.90
2023-02-21T13:07:36.524Z,8.10
2023-02-21T13:13:00.958Z,8.30
2023-02-21T13:18:11.111Z,8.40
2023-02-21T13:23:32.081Z,8.30
2023-02-21T13:28:38.758Z,8.40
2023-02-21T13:33:48.955Z,8.40
2023-02-21T13:39:02.087Z,8.60
2023-02-21T13:44:10.949Z,8.50
2023-02-21T13:49:50.853Z,8.30
2023-02-21T13:55:21.227Z,8.40
2023-02-21T14:00:25.778Z,8.60
2023-02-21T14:05:50.360Z,8.60
2023-02-21T14:10:55.048Z,8.40
2023-02-21T14:15:59.859Z,8.70
2023-02-21T14:21:02.393Z,8.70
2023-02-21T14:26:07.367Z,8.70
2023-02-21T14:31:12.485Z,8.80
2023-02-21T14:36:18.765Z,8.60
2023-02-21T14:41:57.492Z,8.60
2023-02-21T14:47:40.061Z,8.70
2023-02-21T14:53:05.774Z,8.90
2023-02-21T14:58:22.475Z,8.80
2023-02-21T15:03:42.286Z,8.90
2023-02-21T15:08:47.120Z,9.10
2023-02-21T15:14:09.152Z,9.10
2023-02-21T15:19:25.414Z,9.10
2023-02-21T15:24:28.627Z,8.90
2023-02-21T15:29:30.379Z,8.80
2023-02-21T15:34:41.097Z,8.90
2023-02-21T15:39:51.592Z,8.90
2023-02-21T15:45:05.532Z,8.90
2023-02-21T15:50:37.816Z,8.90
2023-02-21T15:55:40.020Z,8.90
2023-02-21T16:00:46.930Z,8.90
2023-02-21T16:05:48.752Z,8.90
2023-02-21T16:10:50.661Z,8.80
2023-02-21T16:15:52.435Z,8.70
2023-02-21T16:21:03.483Z,8.70
2023-02-21T16:26:14.580Z,8.50
2023-02-21T16:31:44.573Z,8.60
2023-02-21T16:36:46.610Z,8.60
2023-02-21T16:41:48.488Z,8.50
2023-02-21T16:46:53.791Z,8.50
2023-02-21T16:51:55.545Z,8.40
2023-02-21T16:56:57.655Z,8.40
2023-02-21T17:02:00.051Z,8.40
2023-02-21T17:07:06.826Z,8.30
2023-02-21T17:12:11.763Z,8.10
2023-02-21T17:17:13.502Z,8.20
2023-02-21T17:22:15.277Z,8.00
2023-02-21T17:27:17.332Z,7.90
2023-02-21T17:32:19.152Z,7.70
2023-02-21T17:37:20.938Z,7.60
2023-02-21T17:42:24.212Z,7.50
2023-02-21T17:47:26.189Z,7.40
2023-02-21T17:52:28.353Z,7.30
2023-02-21T17:57:35.028Z,7.10
2023-02-21T18:02:37.691Z,7.00
2023-02-21T18:07:39.557Z,6.90
2023-02-21T18:12:41.333Z,6.80
2023-02-21T18:17:43.198Z,6.80
2023-02-21T18:22:45.474Z,6.70
2023-02-21T18:27:47.228Z,6.60
2023-02-21T18:32:49.037Z,6.50
2023-02-21T18:37:50.860Z,6.50
2023-02-21T18:42:52.640Z,6.40
2023-02-21T18:47:54.435Z,6.40
2023-02-21T18:52:56.255Z,6.30
2023-02-21T18:57:58.609Z,6.10
2023-02-21T19:03:01.370Z,6.00
2023-02-21T19:08:03.423Z,5.90
2023-02-21T19:13:05.418Z,5.90
2023-02-21T19:18:07.270Z,5.80
2023-02-21T19:23:09.210Z,5.80
2023-02-21T19:28:10.974Z,5.70
2023-02-21T19:33:12.710Z,5.60
2023-02-21T19:38:14.646Z,5.40
2023-02-21T19:43:16.529Z,5.40
2023-02-21T19:48:20.725Z,5.30
2023-02-21T19:53:22.703Z,5.30
2023-02-21T19:58:24.458Z,5.30
2023-02-21T20:03:26.379Z,5.10
2023-02-21T20:08:29.379Z,5.10
2023-02-21T20:13:31.131Z,5.00
2023-02-21T20:18:32.973Z,5.00
2023-02-21T20:23:35.301Z,5.00
2023-02-21T20:28:37.097Z,5.10
2023-02-21T20:33:39.558Z,5.10
2023-02-21T20:38:41.332Z,5.10
2023-02-21T20:43:43.180Z,5.00
2023-02-21T20:48:45.346Z,5.00
2023-02-21T20:53:47.361Z,5.00
2023-02-21T20:58:49.143Z,5.10
2023-02-21T21:03:51.294Z,5.00
2023-02-21T21:08:53.144Z,5.20
2023-02-21T21:13:54.911Z,5.40
2023-02-21T21:18:57.502Z,5.50
2023-02-21T21:24:00.515Z,5.50
2023-02-21T21:29:02.307Z,5.50
2023-02-21T21:34:04.548Z,5.70
2023-02-21T21:39:06.325Z,5.80
2023-02-21T21:44:09.814Z,5.80
2023-02-21T21:49:17.228Z,5.80
2023-02-21T21:54:25.485Z,5.90
2023-02-21T21:59:27.303Z,6.00
2023-02-21T22:04:29.006Z,6.00
2023-02-21T22:09:31.859Z,5.90
2023-02-21T22:14:34.044Z,5.90
2023-02-21T22:19:35.784Z,6.00
2023-02-21T22:24:40.612Z,5.90
2023-02-21T22:29:42.866Z,5.90
2023-02-21T22:34:44.623Z,5.80
2023-02-21T22:39:46.394Z,5.90
2023-02-21T22:44:51.272Z,6.00
2023-02-21T22:49:52.999Z,6.00
2023-02-21T22:54:55.019Z,6.00
2023-02-21T22:59:57.944Z,6.00
2023-02-21T23:04:59.772Z,5.90
2023-02-21T23:10:01.736Z,6.00
2023-02-21T23:15:03.631Z,6.00
2023-02-21T23:20:15.771Z,6.00
2023-02-21T23:25:20.605Z,6.00
2023-02-21T23:30:27.445Z,5.90
2023-02-21T23:35:29.291Z,5.90
2023-02-21T23:40:31.111Z,5.90
2023-02-21T23:45:32.887Z,6.00
2023-02-21T23:50:36.665Z,5.90
2023-02-21T23:55:40.648Z,5.80
